sensor_id;sensor_type;location;lat;lon;timestamp;P1;durP1;ratioP1;P2;durP2;ratioP2
13263;SDS011;6700;51.988;7.646;2023-01-05T00:00:53;14.73;;;4.50;;
13263;SDS011;6700;51.988;7.646;2023-01-05T00:03:21;21.87;;;5.37;;
13263;SDS011;6700;51.988;7.646;2023-01-05T00:05:48;23.43;;;5.80;;
13263;SDS011;6700;51.988;7.646;2023-01-05T00:08:17;18.07;;;4.73;;
13263;SDS011;6700;51.988;7.646;2023-01-05T00:10:45;18.40;;;4.50;;
13263;SDS011;6700;51.988;7.646;2023-01-05T00:13:31;28.13;;;5.30;;
13263;SDS011;6700;51.988;7.646;2023-01-05T00:16:17;20.40;;;4.97;;
13263;SDS011;6700;51.988;7.646;2023-01-05T00:19:04;16.70;;;4.53;;
13263;SDS011;6700;51.988;7.646;2023-01-05T00:21:51;20.13;;;5.70;;
13263;SDS011;6700;51.988;7.646;2023-01-05T00:24:37;22.17;;;5.37;;
13263;SDS011;6700;51.988;7.646;2023-01-05T00:27:05;23.73;;;5.17;;
13263;SDS011;6700;51.988;7.646;2023-01-05T00:29:34;22.23;;;5.17;;
13263;SDS011;6700;51.988;7.646;2023-01-05T00:32:01;20.53;;;5.00;;
13263;SDS011;6700;51.988;7.646;2023-01-05T00:34:28;22.40;;;6.13;;
13263;SDS011;6700;51.988;7.646;2023-01-05T00:36:55;21.00;;;6.23;;
13263;SDS011;6700;51.988;7.646;2023-01-05T00:39:23;15.83;;;4.70;;
13263;SDS011;6700;51.988;7.646;2023-01-05T00:41:50;25.60;;;4.97;;
13263;SDS011;6700;51.988;7.646;2023-01-05T00:44:18;22.67;;;6.63;;
13263;SDS011;6700;51.988;7.646;2023-01-05T00:46:46;20.77;;;5.97;;
13263;SDS011;6700;51.988;7.646;2023-01-05T00:49:13;27.73;;;5.50;;
13263;SDS011;6700;51.988;7.646;2023-01-05T00:51:40;30.03;;;5.30;;
13263;SDS011;6700;51.988;7.646;2023-01-05T00:54:10;17.27;;;5.63;;
13263;SDS011;6700;51.988;7.646;2023-01-05T00:56:38;24.30;;;6.17;;
13263;SDS011;6700;51.988;7.646;2023-01-05T00:59:05;27.07;;;5.50;;
13263;SDS011;6700;51.988;7.646;2023-01-05T01:01:32;24.30;;;6.27;;
13263;SDS011;6700;51.988;7.646;2023-01-05T01:03:59;16.87;;;5.00;;
13263;SDS011;6700;51.988;7.646;2023-01-05T01:06:27;20.73;;;5.30;;
13263;SDS011;6700;51.988;7.646;2023-01-05T01:08:54;19.30;;;4.87;;
13263;SDS011;6700;51.988;7.646;2023-01-05T01:11:21;20.43;;;5.40;;
13263;SDS011;6700;51.988;7.646;2023-01-05T01:13:48;19.57;;;5.33;;
13263;SDS011;6700;51.988;7.646;2023-01-05T01:16:16;21.20;;;4.77;;
13263;SDS011;6700;51.988;7.646;2023-01-05T01:18:44;23.23;;;5.60;;
13263;SDS011;6700;51.988;7.646;2023-01-05T01:21:11;25.73;;;5.20;;
13263;SDS011;6700;51.988;7.646;2023-01-05T01:23:39;14.47;;;4.33;;
13263;SDS011;6700;51.988;7.646;2023-01-05T01:26:07;20.57;;;5.63;;
13263;SDS011;6700;51.988;7.646;2023-01-05T01:28:35;21.97;;;5.23;;
13263;SDS011;6700;51.988;7.646;2023-01-05T01:31:03;20.77;;;4.47;;
13263;SDS011;6700;51.988;7.646;2023-01-05T01:33:31;26.23;;;5.73;;
13263;SDS011;6700;51.988;7.646;2023-01-05T01:36:04;23.17;;;5.57;;
13263;SDS011;6700;51.988;7.646;2023-01-05T01:38:35;24.40;;;5.77;;
13263;SDS011;6700;51.988;7.646;2023-01-05T01:41:04;17.80;;;4.00;;
13263;SDS011;6700;51.988;7.646;2023-01-05T01:43:45;18.47;;;5.17;;
13263;SDS011;6700;51.988;7.646;2023-01-05T01:46:14;20.00;;;4.90;;
13263;SDS011;6700;51.988;7.646;2023-01-05T01:48:45;21.00;;;5.07;;
13263;SDS011;6700;51.988;7.646;2023-01-05T01:51:37;18.37;;;5.60;;
13263;SDS011;6700;51.988;7.646;2023-01-05T01:54:04;13.40;;;4.50;;
13263;SDS011;6700;51.988;7.646;2023-01-05T01:56:36;27.90;;;5.60;;
13263;SDS011;6700;51.988;7.646;2023-01-05T01:59:04;18.87;;;4.50;;
13263;SDS011;6700;51.988;7.646;2023-01-05T02:01:32;33.73;;;10.27;;
13263;SDS011;6700;51.988;7.646;2023-01-05T02:04:00;28.77;;;11.50;;
13263;SDS011;6700;51.988;7.646;2023-01-05T02:06:28;16.53;;;8.70;;
13263;SDS011;6700;51.988;7.646;2023-01-05T02:08:56;20.77;;;5.87;;
13263;SDS011;6700;51.988;7.646;2023-01-05T02:11:28;22.50;;;5.03;;
13263;SDS011;6700;51.988;7.646;2023-01-05T02:16:47;19.37;;;4.77;;
13263;SDS011;6700;51.988;7.646;2023-01-05T02:24:41;18.93;;;5.57;;
13263;SDS011;6700;51.988;7.646;2023-01-05T02:27:27;16.37;;;5.37;;
13263;SDS011;6700;51.988;7.646;2023-01-05T02:32:42;22.93;;;4.87;;
13263;SDS011;6700;51.988;7.646;2023-01-05T02:35:26;27.30;;;6.37;;
13263;SDS011;6700;51.988;7.646;2023-01-05T02:38:00;24.03;;;6.57;;
13263;SDS011;6700;51.988;7.646;2023-01-05T02:40:32;16.97;;;5.43;;
13263;SDS011;6700;51.988;7.646;2023-01-05T02:43:00;16.90;;;5.30;;
13263;SDS011;6700;51.988;7.646;2023-01-05T02:45:28;19.90;;;5.90;;
13263;SDS011;6700;51.988;7.646;2023-01-05T02:47:55;23.57;;;6.33;;
13263;SDS011;6700;51.988;7.646;2023-01-05T02:50:25;16.40;;;4.97;;
13263;SDS011;6700;51.988;7.646;2023-01-05T02:53:04;25.13;;;5.47;;
13263;SDS011;6700;51.988;7.646;2023-01-05T02:55:37;15.13;;;5.63;;
13263;SDS011;6700;51.988;7.646;2023-01-05T02:58:13;26.07;;;5.20;;
13263;SDS011;6700;51.988;7.646;2023-01-05T03:00:43;18.13;;;4.83;;
13263;SDS011;6700;51.988;7.646;2023-01-05T03:05:39;19.23;;;5.07;;
13263;SDS011;6700;51.988;7.646;2023-01-05T03:08:07;19.83;;;6.23;;
13263;SDS011;6700;51.988;7.646;2023-01-05T03:10:41;22.47;;;5.67;;
13263;SDS011;6700;51.988;7.646;2023-01-05T03:13:31;19.47;;;5.83;;
13263;SDS011;6700;51.988;7.646;2023-01-05T03:16:10;22.27;;;5.03;;
13263;SDS011;6700;51.988;7.646;2023-01-05T03:18:39;24.73;;;5.50;;
13263;SDS011;6700;51.988;7.646;2023-01-05T03:21:26;23.00;;;5.37;;
13263;SDS011;6700;51.988;7.646;2023-01-05T03:24:01;25.80;;;6.07;;
13263;SDS011;6700;51.988;7.646;2023-01-05T03:26:47;22.23;;;6.03;;
13263;SDS011;6700;51.988;7.646;2023-01-05T03:29:33;22.83;;;5.60;;
13263;SDS011;6700;51.988;7.646;2023-01-05T03:32:21;19.87;;;4.97;;
13263;SDS011;6700;51.988;7.646;2023-01-05T03:35:09;22.13;;;4.83;;
13263;SDS011;6700;51.988;7.646;2023-01-05T03:40:28;23.47;;;4.97;;
13263;SDS011;6700;51.988;7.646;2023-01-05T03:42:56;17.90;;;5.37;;
13263;SDS011;6700;51.988;7.646;2023-01-05T03:45:23;19.47;;;5.70;;
13263;SDS011;6700;51.988;7.646;2023-01-05T03:47:52;23.10;;;5.17;;
13263;SDS011;6700;51.988;7.646;2023-01-05T03:50:21;22.13;;;5.17;;
13263;SDS011;6700;51.988;7.646;2023-01-05T03:52:48;16.57;;;5.37;;
13263;SDS011;6700;51.988;7.646;2023-01-05T03:55:15;20.97;;;4.67;;
13263;SDS011;6700;51.988;7.646;2023-01-05T03:57:42;23.60;;;5.43;;
13263;SDS011;6700;51.988;7.646;2023-01-05T04:00:09;19.20;;;5.40;;
13263;SDS011;6700;51.988;7.646;2023-01-05T04:02:36;21.03;;;5.50;;
13263;SDS011;6700;51.988;7.646;2023-01-05T04:05:04;18.50;;;5.83;;
13263;SDS011;6700;51.988;7.646;2023-01-05T04:07:32;22.53;;;4.70;;
13263;SDS011;6700;51.988;7.646;2023-01-05T04:09:59;22.93;;;5.47;;
13263;SDS011;6700;51.988;7.646;2023-01-05T04:12:26;20.77;;;5.07;;
13263;SDS011;6700;51.988;7.646;2023-01-05T04:14:53;21.57;;;6.07;;
13263;SDS011;6700;51.988;7.646;2023-01-05T04:17:20;17.60;;;5.33;;
13263;SDS011;6700;51.988;7.646;2023-01-05T04:19:47;21.37;;;4.77;;
13263;SDS011;6700;51.988;7.646;2023-01-05T04:22:14;27.90;;;5.60;;
13263;SDS011;6700;51.988;7.646;2023-01-05T04:24:47;19.20;;;5.63;;
13263;SDS011;6700;51.988;7.646;2023-01-05T04:27:14;20.47;;;6.27;;
13263;SDS011;6700;51.988;7.646;2023-01-05T04:29:41;22.37;;;5.03;;
13263;SDS011;6700;51.988;7.646;2023-01-05T04:32:08;22.43;;;5.13;;
13263;SDS011;6700;51.988;7.646;2023-01-05T04:34:35;21.40;;;5.23;;
13263;SDS011;6700;51.988;7.646;2023-01-05T04:37:02;16.90;;;4.97;;
13263;SDS011;6700;51.988;7.646;2023-01-05T04:39:29;20.40;;;4.63;;
13263;SDS011;6700;51.988;7.646;2023-01-05T04:41:57;21.67;;;5.97;;
13263;SDS011;6700;51.988;7.646;2023-01-05T04:44:24;22.13;;;5.47;;
13263;SDS011;6700;51.988;7.646;2023-01-05T04:46:51;18.57;;;5.33;;
13263;SDS011;6700;51.988;7.646;2023-01-05T04:49:18;18.27;;;4.93;;
13263;SDS011;6700;51.988;7.646;2023-01-05T04:51:45;21.70;;;5.70;;
13263;SDS011;6700;51.988;7.646;2023-01-05T04:54:12;26.87;;;5.33;;
13263;SDS011;6700;51.988;7.646;2023-01-05T04:56:39;22.80;;;5.47;;
13263;SDS011;6700;51.988;7.646;2023-01-05T04:59:07;20.23;;;5.63;;
13263;SDS011;6700;51.988;7.646;2023-01-05T05:01:34;20.53;;;5.77;;
13263;SDS011;6700;51.988;7.646;2023-01-05T05:04:01;25.30;;;6.30;;
13263;SDS011;6700;51.988;7.646;2023-01-05T05:06:28;19.57;;;5.37;;
13263;SDS011;6700;51.988;7.646;2023-01-05T05:08:56;22.33;;;5.10;;
13263;SDS011;6700;51.988;7.646;2023-01-05T05:11:23;20.00;;;5.37;;
13263;SDS011;6700;51.988;7.646;2023-01-05T05:13:50;21.37;;;5.37;;
13263;SDS011;6700;51.988;7.646;2023-01-05T05:16:17;20.53;;;4.70;;
13263;SDS011;6700;51.988;7.646;2023-01-05T05:18:44;17.10;;;6.00;;
13263;SDS011;6700;51.988;7.646;2023-01-05T05:21:12;21.47;;;5.77;;
13263;SDS011;6700;51.988;7.646;2023-01-05T05:23:39;14.47;;;4.77;;
13263;SDS011;6700;51.988;7.646;2023-01-05T05:26:06;18.40;;;5.23;;
13263;SDS011;6700;51.988;7.646;2023-01-05T05:28:33;19.13;;;5.30;;
13263;SDS011;6700;51.988;7.646;2023-01-05T05:31:00;13.57;;;4.63;;
13263;SDS011;6700;51.988;7.646;2023-01-05T05:33:27;24.57;;;5.97;;
13263;SDS011;6700;51.988;7.646;2023-01-05T05:35:55;16.70;;;4.80;;
13263;SDS011;6700;51.988;7.646;2023-01-05T05:38:22;19.03;;;5.13;;
13263;SDS011;6700;51.988;7.646;2023-01-05T05:40:49;20.80;;;5.20;;
13263;SDS011;6700;51.988;7.646;2023-01-05T05:43:16;25.37;;;5.80;;
13263;SDS011;6700;51.988;7.646;2023-01-05T05:45:43;24.37;;;5.00;;
13263;SDS011;6700;51.988;7.646;2023-01-05T05:48:17;24.13;;;5.83;;
13263;SDS011;6700;51.988;7.646;2023-01-05T05:50:45;21.63;;;5.30;;
13263;SDS011;6700;51.988;7.646;2023-01-05T05:53:12;24.80;;;6.33;;
13263;SDS011;6700;51.988;7.646;2023-01-05T05:55:39;20.70;;;5.47;;
13263;SDS011;6700;51.988;7.646;2023-01-05T05:58:06;18.40;;;4.67;;
13263;SDS011;6700;51.988;7.646;2023-01-05T06:00:34;19.37;;;5.60;;
13263;SDS011;6700;51.988;7.646;2023-01-05T06:03:01;22.73;;;5.00;;
13263;SDS011;6700;51.988;7.646;2023-01-05T06:05:28;25.40;;;4.80;;
13263;SDS011;6700;51.988;7.646;2023-01-05T06:07:55;16.00;;;3.97;;
13263;SDS011;6700;51.988;7.646;2023-01-05T06:10:22;20.33;;;4.60;;
13263;SDS011;6700;51.988;7.646;2023-01-05T06:12:51;23.60;;;6.23;;
13263;SDS011;6700;51.988;7.646;2023-01-05T06:15:19;22.07;;;5.00;;
13263;SDS011;6700;51.988;7.646;2023-01-05T06:17:46;16.00;;;4.67;;
13263;SDS011;6700;51.988;7.646;2023-01-05T06:20:14;18.30;;;5.33;;
13263;SDS011;6700;51.988;7.646;2023-01-05T06:22:42;21.17;;;5.17;;
13263;SDS011;6700;51.988;7.646;2023-01-05T06:25:09;21.40;;;5.27;;
13263;SDS011;6700;51.988;7.646;2023-01-05T06:27:37;27.80;;;5.57;;
13263;SDS011;6700;51.988;7.646;2023-01-05T06:30:04;24.87;;;5.67;;
13263;SDS011;6700;51.988;7.646;2023-01-05T06:32:31;22.87;;;5.97;;
13263;SDS011;6700;51.988;7.646;2023-01-05T06:34:58;26.80;;;7.13;;
13263;SDS011;6700;51.988;7.646;2023-01-05T06:37:25;23.43;;;5.67;;
13263;SDS011;6700;51.988;7.646;2023-01-05T06:39:53;26.50;;;6.37;;
13263;SDS011;6700;51.988;7.646;2023-01-05T06:42:21;22.03;;;5.50;;
13263;SDS011;6700;51.988;7.646;2023-01-05T06:44:49;18.97;;;5.63;;
13263;SDS011;6700;51.988;7.646;2023-01-05T06:47:16;28.03;;;5.00;;
13263;SDS011;6700;51.988;7.646;2023-01-05T06:49:43;24.40;;;7.17;;
13263;SDS011;6700;51.988;7.646;2023-01-05T06:52:12;22.07;;;5.33;;
13263;SDS011;6700;51.988;7.646;2023-01-05T06:54:42;23.23;;;4.60;;
13263;SDS011;6700;51.988;7.646;2023-01-05T06:57:09;20.77;;;5.57;;
13263;SDS011;6700;51.988;7.646;2023-01-05T06:59:36;19.83;;;6.33;;
13263;SDS011;6700;51.988;7.646;2023-01-05T07:02:03;26.60;;;5.27;;
13263;SDS011;6700;51.988;7.646;2023-01-05T07:04:31;23.73;;;5.57;;
13263;SDS011;6700;51.988;7.646;2023-01-05T07:06:58;23.10;;;5.27;;
13263;SDS011;6700;51.988;7.646;2023-01-05T07:09:25;23.00;;;5.13;;
13263;SDS011;6700;51.988;7.646;2023-01-05T07:11:52;24.53;;;6.20;;
13263;SDS011;6700;51.988;7.646;2023-01-05T07:14:19;29.33;;;6.47;;
13263;SDS011;6700;51.988;7.646;2023-01-05T07:16:46;15.37;;;4.80;;
13263;SDS011;6700;51.988;7.646;2023-01-05T07:19:14;23.97;;;5.93;;
13263;SDS011;6700;51.988;7.646;2023-01-05T07:21:41;22.50;;;5.60;;
13263;SDS011;6700;51.988;7.646;2023-01-05T07:24:08;18.83;;;5.23;;
13263;SDS011;6700;51.988;7.646;2023-01-05T07:26:35;16.30;;;5.07;;
13263;SDS011;6700;51.988;7.646;2023-01-05T07:29:02;23.90;;;5.57;;
13263;SDS011;6700;51.988;7.646;2023-01-05T07:31:29;31.03;;;5.33;;
13263;SDS011;6700;51.988;7.646;2023-01-05T07:33:56;22.83;;;5.43;;
13263;SDS011;6700;51.988;7.646;2023-01-05T07:36:23;24.10;;;5.57;;
13263;SDS011;6700;51.988;7.646;2023-01-05T07:38:51;20.93;;;5.57;;
13263;SDS011;6700;51.988;7.646;2023-01-05T07:41:18;17.10;;;5.40;;
13263;SDS011;6700;51.988;7.646;2023-01-05T07:43:49;24.80;;;5.67;;
13263;SDS011;6700;51.988;7.646;2023-01-05T07:46:16;20.27;;;5.33;;
13263;SDS011;6700;51.988;7.646;2023-01-05T07:48:44;23.47;;;5.73;;
13263;SDS011;6700;51.988;7.646;2023-01-05T07:51:11;24.43;;;5.40;;
13263;SDS011;6700;51.988;7.646;2023-01-05T07:53:38;22.70;;;4.80;;
13263;SDS011;6700;51.988;7.646;2023-01-05T07:56:10;21.37;;;5.43;;
13263;SDS011;6700;51.988;7.646;2023-01-05T07:58:37;22.90;;;5.83;;
13263;SDS011;6700;51.988;7.646;2023-01-05T08:01:05;21.87;;;5.77;;
13263;SDS011;6700;51.988;7.646;2023-01-05T08:03:33;23.20;;;5.97;;
13263;SDS011;6700;51.988;7.646;2023-01-05T08:06:04;20.33;;;6.07;;
13263;SDS011;6700;51.988;7.646;2023-01-05T08:08:32;21.87;;;5.60;;
13263;SDS011;6700;51.988;7.646;2023-01-05T08:10:59;22.47;;;4.77;;
13263;SDS011;6700;51.988;7.646;2023-01-05T08:13:26;22.13;;;6.00;;
13263;SDS011;6700;51.988;7.646;2023-01-05T08:16:11;17.93;;;4.93;;
13263;SDS011;6700;51.988;7.646;2023-01-05T08:18:40;14.23;;;4.77;;
13263;SDS011;6700;51.988;7.646;2023-01-05T08:21:08;27.23;;;6.43;;
13263;SDS011;6700;51.988;7.646;2023-01-05T08:23:36;20.80;;;5.70;;
13263;SDS011;6700;51.988;7.646;2023-01-05T08:26:05;20.13;;;6.33;;
13263;SDS011;6700;51.988;7.646;2023-01-05T08:28:36;19.13;;;5.40;;
13263;SDS011;6700;51.988;7.646;2023-01-05T08:31:04;16.80;;;5.10;;
13263;SDS011;6700;51.988;7.646;2023-01-05T08:33:31;26.53;;;5.40;;
13263;SDS011;6700;51.988;7.646;2023-01-05T08:35:58;23.30;;;6.10;;
13263;SDS011;6700;51.988;7.646;2023-01-05T08:38:26;23.07;;;5.37;;
13263;SDS011;6700;51.988;7.646;2023-01-05T08:40:56;19.57;;;5.30;;
13263;SDS011;6700;51.988;7.646;2023-01-05T08:43:24;13.87;;;5.07;;
13263;SDS011;6700;51.988;7.646;2023-01-05T08:45:52;27.40;;;6.83;;
13263;SDS011;6700;51.988;7.646;2023-01-05T08:48:19;20.93;;;5.27;;
13263;SDS011;6700;51.988;7.646;2023-01-05T08:50:46;18.90;;;4.83;;
13263;SDS011;6700;51.988;7.646;2023-01-05T08:53:13;25.80;;;5.80;;
13263;SDS011;6700;51.988;7.646;2023-01-05T08:55:40;21.17;;;5.47;;
13263;SDS011;6700;51.988;7.646;2023-01-05T08:58:08;15.93;;;5.20;;
13263;SDS011;6700;51.988;7.646;2023-01-05T09:00:35;24.53;;;6.17;;
13263;SDS011;6700;51.988;7.646;2023-01-05T09:03:02;19.33;;;5.50;;
13263;SDS011;6700;51.988;7.646;2023-01-05T09:05:29;19.43;;;5.50;;
13263;SDS011;6700;51.988;7.646;2023-01-05T09:07:56;24.80;;;5.37;;
13263;SDS011;6700;51.988;7.646;2023-01-05T09:10:23;22.00;;;5.23;;
13263;SDS011;6700;51.988;7.646;2023-01-05T09:12:51;15.67;;;4.33;;
13263;SDS011;6700;51.988;7.646;2023-01-05T09:15:18;15.83;;;5.07;;
13263;SDS011;6700;51.988;7.646;2023-01-05T09:17:45;22.30;;;5.23;;
13263;SDS011;6700;51.988;7.646;2023-01-05T09:20:12;12.77;;;4.10;;
13263;SDS011;6700;51.988;7.646;2023-01-05T09:22:39;14.63;;;4.67;;
13263;SDS011;6700;51.988;7.646;2023-01-05T09:25:07;19.60;;;6.33;;
13263;SDS011;6700;51.988;7.646;2023-01-05T09:27:35;20.53;;;4.90;;
13263;SDS011;6700;51.988;7.646;2023-01-05T09:30:03;22.80;;;5.30;;
13263;SDS011;6700;51.988;7.646;2023-01-05T09:32:30;20.03;;;4.60;;
13263;SDS011;6700;51.988;7.646;2023-01-05T09:34:57;14.33;;;4.37;;
13263;SDS011;6700;51.988;7.646;2023-01-05T09:37:24;17.97;;;5.20;;
13263;SDS011;6700;51.988;7.646;2023-01-05T09:39:51;12.27;;;5.07;;
13263;SDS011;6700;51.988;7.646;2023-01-05T09:42:19;15.97;;;5.27;;
13263;SDS011;6700;51.988;7.646;2023-01-05T09:44:49;22.20;;;6.03;;
13263;SDS011;6700;51.988;7.646;2023-01-05T09:50:00;21.63;;;5.23;;
13263;SDS011;6700;51.988;7.646;2023-01-05T09:52:28;17.90;;;4.70;;
13263;SDS011;6700;51.988;7.646;2023-01-05T09:55:08;18.80;;;5.80;;
13263;SDS011;6700;51.988;7.646;2023-01-05T09:57:36;21.33;;;5.73;;
13263;SDS011;6700;51.988;7.646;2023-01-05T10:00:05;18.17;;;4.90;;
13263;SDS011;6700;51.988;7.646;2023-01-05T10:05:03;17.43;;;5.23;;
13263;SDS011;6700;51.988;7.646;2023-01-05T10:13:18;21.33;;;5.90;;
13263;SDS011;6700;51.988;7.646;2023-01-05T10:15:48;21.70;;;5.50;;
13263;SDS011;6700;51.988;7.646;2023-01-05T10:18:16;21.33;;;5.73;;
13263;SDS011;6700;51.988;7.646;2023-01-05T10:23:34;18.77;;;5.30;;
13263;SDS011;6700;51.988;7.646;2023-01-05T10:26:04;18.40;;;6.03;;
13263;SDS011;6700;51.988;7.646;2023-01-05T10:28:40;25.27;;;6.93;;
13263;SDS011;6700;51.988;7.646;2023-01-05T10:31:22;23.47;;;5.13;;
13263;SDS011;6700;51.988;7.646;2023-01-05T10:33:57;24.60;;;5.57;;
13263;SDS011;6700;51.988;7.646;2023-01-05T10:36:42;26.33;;;5.00;;
13263;SDS011;6700;51.988;7.646;2023-01-05T10:42:00;17.47;;;4.80;;
13263;SDS011;6700;51.988;7.646;2023-01-05T10:47:11;24.57;;;6.20;;
13263;SDS011;6700;51.988;7.646;2023-01-05T10:49:39;15.80;;;4.77;;
13263;SDS011;6700;51.988;7.646;2023-01-05T10:52:11;20.57;;;5.20;;
13263;SDS011;6700;51.988;7.646;2023-01-05T10:54:39;18.57;;;5.53;;
13263;SDS011;6700;51.988;7.646;2023-01-05T11:03:15;20.13;;;5.77;;
13263;SDS011;6700;51.988;7.646;2023-01-05T11:07:51;20.00;;;5.30;;
13263;SDS011;6700;51.988;7.646;2023-01-05T11:10:23;22.70;;;6.17;;
13263;SDS011;6700;51.988;7.646;2023-01-05T11:12:59;18.07;;;5.40;;
13263;SDS011;6700;51.988;7.646;2023-01-05T11:15:28;19.43;;;5.67;;
13263;SDS011;6700;51.988;7.646;2023-01-05T11:17:55;20.80;;;6.50;;
13263;SDS011;6700;51.988;7.646;2023-01-05T11:20:23;23.37;;;5.40;;
13263;SDS011;6700;51.988;7.646;2023-01-05T11:22:52;24.13;;;9.13;;
13263;SDS011;6700;51.988;7.646;2023-01-05T11:25:29;22.77;;;10.20;;
13263;SDS011;6700;51.988;7.646;2023-01-05T11:28:03;24.17;;;8.80;;
13263;SDS011;6700;51.988;7.646;2023-01-05T11:30:31;23.67;;;8.97;;
13263;SDS011;6700;51.988;7.646;2023-01-05T11:32:58;25.50;;;8.50;;
13263;SDS011;6700;51.988;7.646;2023-01-05T11:35:31;24.13;;;6.60;;
13263;SDS011;6700;51.988;7.646;2023-01-05T11:38:00;21.63;;;7.27;;
13263;SDS011;6700;51.988;7.646;2023-01-05T11:40:28;16.47;;;6.30;;
13263;SDS011;6700;51.988;7.646;2023-01-05T11:42:56;23.93;;;6.97;;
13263;SDS011;6700;51.988;7.646;2023-01-05T11:45:24;35.30;;;24.27;;
13263;SDS011;6700;51.988;7.646;2023-01-05T11:52:51;18.87;;;5.97;;
13263;SDS011;6700;51.988;7.646;2023-01-05T11:55:26;20.40;;;6.83;;
13263;SDS011;6700;51.988;7.646;2023-01-05T12:05:50;25.27;;;6.80;;
13263;SDS011;6700;51.988;7.646;2023-01-05T12:16:22;17.40;;;6.20;;
13263;SDS011;6700;51.988;7.646;2023-01-05T12:21:26;20.27;;;6.23;;
13263;SDS011;6700;51.988;7.646;2023-01-05T12:26:29;24.53;;;6.33;;
13263;SDS011;6700;51.988;7.646;2023-01-05T12:50:52;24.70;;;11.60;;
13263;SDS011;6700;51.988;7.646;2023-01-05T12:55:50;17.13;;;5.90;;
13263;SDS011;6700;51.988;7.646;2023-01-05T12:58:24;22.43;;;8.13;;
13263;SDS011;6700;51.988;7.646;2023-01-05T13:00:53;22.27;;;8.07;;
13263;SDS011;6700;51.988;7.646;2023-01-05T13:03:27;23.17;;;6.53;;
13263;SDS011;6700;51.988;7.646;2023-01-05T13:08:35;15.03;;;5.30;;
13263;SDS011;6700;51.988;7.646;2023-01-05T13:11:08;24.37;;;5.33;;
13263;SDS011;6700;51.988;7.646;2023-01-05T13:13:41;21.17;;;6.57;;
13263;SDS011;6700;51.988;7.646;2023-01-05T13:19:34;33.30;;;12.43;;
13263;SDS011;6700;51.988;7.646;2023-01-05T13:21:33;25.27;;;10.10;;
13263;SDS011;6700;51.988;7.646;2023-01-05T13:24:02;19.63;;;7.53;;
13263;SDS011;6700;51.988;7.646;2023-01-05T13:26:32;17.60;;;4.80;;
13263;SDS011;6700;51.988;7.646;2023-01-05T13:29:03;17.73;;;5.90;;
13263;SDS011;6700;51.988;7.646;2023-01-05T13:42:21;19.03;;;6.87;;
13263;SDS011;6700;51.988;7.646;2023-01-05T13:54:56;21.53;;;5.27;;
13263;SDS011;6700;51.988;7.646;2023-01-05T13:57:37;11.87;;;4.40;;
13263;SDS011;6700;51.988;7.646;2023-01-05T14:00:18;17.60;;;5.93;;
13263;SDS011;6700;51.988;7.646;2023-01-05T14:02:55;18.63;;;6.30;;
13263;SDS011;6700;51.988;7.646;2023-01-05T14:05:25;15.90;;;5.83;;
13263;SDS011;6700;51.988;7.646;2023-01-05T14:07:53;18.50;;;5.97;;
13263;SDS011;6700;51.988;7.646;2023-01-05T14:10:22;21.53;;;6.90;;
13263;SDS011;6700;51.988;7.646;2023-01-05T14:12:50;15.63;;;4.60;;
13263;SDS011;6700;51.988;7.646;2023-01-05T14:18:02;17.47;;;5.43;;
13263;SDS011;6700;51.988;7.646;2023-01-05T14:23:00;25.40;;;6.37;;
13263;SDS011;6700;51.988;7.646;2023-01-05T14:30:49;16.80;;;5.30;;
13263;SDS011;6700;51.988;7.646;2023-01-05T14:33:17;22.13;;;5.60;;
13263;SDS011;6700;51.988;7.646;2023-01-05T14:35:45;21.83;;;6.17;;
13263;SDS011;6700;51.988;7.646;2023-01-05T14:40:41;24.43;;;6.33;;
13263;SDS011;6700;51.988;7.646;2023-01-05T14:48:33;24.23;;;5.87;;
13263;SDS011;6700;51.988;7.646;2023-01-05T14:51:05;21.17;;;6.73;;
13263;SDS011;6700;51.988;7.646;2023-01-05T14:53:41;21.90;;;5.90;;
13263;SDS011;6700;51.988;7.646;2023-01-05T14:56:13;18.30;;;5.83;;
13263;SDS011;6700;51.988;7.646;2023-01-05T15:14:24;19.33;;;6.40;;
13263;SDS011;6700;51.988;7.646;2023-01-05T15:17:08;23.97;;;7.83;;
13263;SDS011;6700;51.988;7.646;2023-01-05T15:30:08;23.93;;;8.50;;
13263;SDS011;6700;51.988;7.646;2023-01-05T15:32:41;20.73;;;8.13;;
13263;SDS011;6700;51.988;7.646;2023-01-05T15:35:19;25.37;;;7.00;;
13263;SDS011;6700;51.988;7.646;2023-01-05T15:37:47;20.57;;;6.60;;
13263;SDS011;6700;51.988;7.646;2023-01-05T15:42:51;16.63;;;7.10;;
13263;SDS011;6700;51.988;7.646;2023-01-05T15:47:49;26.30;;;6.40;;
13263;SDS011;6700;51.988;7.646;2023-01-05T15:50:21;20.10;;;7.00;;
13263;SDS011;6700;51.988;7.646;2023-01-05T15:52:55;22.33;;;5.63;;
13263;SDS011;6700;51.988;7.646;2023-01-05T15:55:22;19.47;;;6.13;;
13263;SDS011;6700;51.988;7.646;2023-01-05T15:58:41;17.00;;;5.57;;
13263;SDS011;6700;51.988;7.646;2023-01-05T16:00:41;26.53;;;5.63;;
13263;SDS011;6700;51.988;7.646;2023-01-05T16:03:18;20.67;;;5.73;;
13263;SDS011;6700;51.988;7.646;2023-01-05T16:05:46;16.77;;;6.33;;
13263;SDS011;6700;51.988;7.646;2023-01-05T16:08:22;23.13;;;6.63;;
13263;SDS011;6700;51.988;7.646;2023-01-05T16:10:50;24.03;;;5.83;;
13263;SDS011;6700;51.988;7.646;2023-01-05T16:13:29;17.90;;;5.67;;
13263;SDS011;6700;51.988;7.646;2023-01-05T16:15:59;20.47;;;7.13;;
13263;SDS011;6700;51.988;7.646;2023-01-05T16:18:29;22.00;;;7.47;;
13263;SDS011;6700;51.988;7.646;2023-01-05T16:20:58;20.80;;;6.47;;
13263;SDS011;6700;51.988;7.646;2023-01-05T16:25:57;19.83;;;7.20;;
13263;SDS011;6700;51.988;7.646;2023-01-05T16:28:25;20.97;;;6.43;;
13263;SDS011;6700;51.988;7.646;2023-01-05T16:30:52;22.23;;;6.33;;
13263;SDS011;6700;51.988;7.646;2023-01-05T16:33:27;25.17;;;6.57;;
13263;SDS011;6700;51.988;7.646;2023-01-05T16:38:32;21.43;;;6.40;;
13263;SDS011;6700;51.988;7.646;2023-01-05T16:41:07;20.97;;;7.27;;
13263;SDS011;6700;51.988;7.646;2023-01-05T16:43:36;30.57;;;11.27;;
13263;SDS011;6700;51.988;7.646;2023-01-05T16:51:04;98.57;;;55.43;;
13263;SDS011;6700;51.988;7.646;2023-01-05T16:53:32;113.13;;;66.33;;
13263;SDS011;6700;51.988;7.646;2023-01-05T16:56:00;79.13;;;44.37;;
13263;SDS011;6700;51.988;7.646;2023-01-05T17:03:44;22.53;;;9.40;;
13263;SDS011;6700;51.988;7.646;2023-01-05T17:06:19;18.37;;;7.03;;
13263;SDS011;6700;51.988;7.646;2023-01-05T17:08:47;25.63;;;8.73;;
13263;SDS011;6700;51.988;7.646;2023-01-05T17:11:14;23.43;;;9.50;;
13263;SDS011;6700;51.988;7.646;2023-01-05T17:13:42;22.27;;;9.60;;
13263;SDS011;6700;51.988;7.646;2023-01-05T17:16:11;27.43;;;11.23;;
13263;SDS011;6700;51.988;7.646;2023-01-05T17:18:38;27.73;;;10.07;;
13263;SDS011;6700;51.988;7.646;2023-01-05T17:21:06;14.37;;;7.47;;
13263;SDS011;6700;51.988;7.646;2023-01-05T17:23:35;35.87;;;15.00;;
13263;SDS011;6700;51.988;7.646;2023-01-05T17:26:05;40.57;;;24.70;;
13263;SDS011;6700;51.988;7.646;2023-01-05T17:28:33;23.70;;;12.97;;
13263;SDS011;6700;51.988;7.646;2023-01-05T17:31:00;24.40;;;9.17;;
13263;SDS011;6700;51.988;7.646;2023-01-05T17:33:27;30.47;;;7.83;;
13263;SDS011;6700;51.988;7.646;2023-01-05T17:35:54;22.20;;;7.97;;
13263;SDS011;6700;51.988;7.646;2023-01-05T17:38:21;21.90;;;7.83;;
13263;SDS011;6700;51.988;7.646;2023-01-05T17:40:48;21.57;;;7.80;;
13263;SDS011;6700;51.988;7.646;2023-01-05T17:43:16;22.27;;;9.20;;
13263;SDS011;6700;51.988;7.646;2023-01-05T17:45:43;24.60;;;12.93;;
13263;SDS011;6700;51.988;7.646;2023-01-05T17:48:11;29.10;;;9.40;;
13263;SDS011;6700;51.988;7.646;2023-01-05T17:50:40;28.07;;;11.60;;
13263;SDS011;6700;51.988;7.646;2023-01-05T17:53:07;26.83;;;13.07;;
13263;SDS011;6700;51.988;7.646;2023-01-05T17:55:35;26.60;;;12.13;;
13263;SDS011;6700;51.988;7.646;2023-01-05T17:58:02;33.00;;;12.13;;
13263;SDS011;6700;51.988;7.646;2023-01-05T18:00:31;27.17;;;10.33;;
13263;SDS011;6700;51.988;7.646;2023-01-05T18:03:00;19.83;;;8.97;;
13263;SDS011;6700;51.988;7.646;2023-01-05T18:05:27;22.63;;;10.60;;
13263;SDS011;6700;51.988;7.646;2023-01-05T18:07:54;16.50;;;8.40;;